Time;durP1;ratioP1;P1;durP2;ratioP2;P2;SDS_P1;SDS_P2;PMS_P1;PMS_P2;Temp;Humidity;BMP_temperature;BMP_pressure;BME280_temperature;BME280_humidity;BME280_pressure;Samples;Min_cycle;Max_cycle;Signal;HPM_P1;HPM_P2
2021/04/25 00:00:01;;;;;;;6.97;3.53;;;11.20;72.80;;;;;;5000932;28;20543;-70
2021/04/25 00:02:29;;;;;;;4.43;3.40;;;11.20;72.50;;;;;;4994917;28;20233;-70
2021/04/25 00:04:55;;;;;;;6.23;3.10;;;11.10;72.80;;;;;;4994991;28;20553;-70
2021/04/25 00:07:20;;;;;;;9.63;3.67;;;11.00;72.80;;;;;;5006183;28;20468;-70
2021/04/25 00:09:46;;;;;;;5.83;3.70;;;10.90;72.80;;;;;;5011699;28;20659;-71
2021/04/25 00:12:12;;;;;;;5.60;3.47;;;10.90;72.70;;;;;;5008484;28;20225;-71
2021/04/25 00:14:37;;;;;;;3.83;3.40;;;10.90;72.80;;;;;;4979548;28;20243;-71
2021/04/25 00:17:03;;;;;;;8.90;4.40;;;10.90;73.00;;;;;;4984119;28;20689;-71
2021/04/25 00:19:30;;;;;;;4.80;3.13;;;10.90;72.80;;;;;;4983484;28;20245;-71
2021/04/25 00:21:55;;;;;;;7.03;4.03;;;10.90;73.00;;;;;;5008501;28;20236;-71
2021/04/25 00:24:21;;;;;;;6.97;3.30;;;10.80;73.70;;;;;;4988953;28;20974;-70
2021/04/25 00:26:47;;;;;;;5.93;3.10;;;10.80;72.70;;;;;;5005759;28;20259;-71
2021/04/25 00:29:13;;;;;;;4.20;3.80;;;10.70;73.10;;;;;;4983153;28;20581;-71
2021/04/25 00:31:39;;;;;;;4.27;3.40;;;10.60;72.90;;;;;;4985735;28;20217;-71
2021/04/25 00:34:05;;;;;;;5.70;3.73;;;10.60;73.00;;;;;;4993466;28;20643;-71
2021/04/25 00:36:32;;;;;;;6.80;4.30;;;10.60;72.90;;;;;;4987981;28;20453;-72
2021/04/25 00:38:58;;;;;;;6.07;3.50;;;10.60;72.90;;;;;;5005307;28;20490;-70
2021/04/25 00:41:23;;;;;;;4.60;3.10;;;10.60;73.10;;;;;;5003086;28;20464;-71
2021/04/25 00:43:49;;;;;;;5.87;4.30;;;10.60;72.70;;;;;;4987456;28;20213;-71
2021/04/25 00:46:15;;;;;;;4.83;3.30;;;10.70;72.80;;;;;;4999495;28;20240;-70
2021/04/25 00:48:41;;;;;;;9.57;4.43;;;10.60;72.30;;;;;;5001657;28;20244;-71
2021/04/25 00:51:12;;;;;;;3.47;2.97;;;10.50;72.80;;;;;;4993342;28;20871;-71
2021/04/25 00:53:38;;;;;;;5.10;3.50;;;10.50;72.80;;;;;;4989954;28;20480;-71
2021/04/25 00:56:04;;;;;;;6.37;4.50;;;10.50;72.80;;;;;;4986885;28;20459;-71
2021/04/25 00:58:30;;;;;;;7.90;4.33;;;10.40;72.80;;;;;;4997827;28;21040;-71
2021/04/25 01:00:55;;;;;;;7.17;4.27;;;10.40;72.60;;;;;;4986178;28;20240;-70
2021/04/25 01:03:23;;;;;;;3.90;2.87;;;10.40;72.60;;;;;;5003748;28;20224;-68
2021/04/25 01:05:50;;;;;;;9.80;3.87;;;10.50;72.40;;;;;;4979335;28;20223;-70
2021/04/25 01:08:15;;;;;;;4.80;3.40;;;10.40;72.60;;;;;;4979565;28;20483;-70
2021/04/25 01:10:42;;;;;;;3.47;3.03;;;10.40;72.50;;;;;;4995001;28;20488;-71
2021/04/25 01:13:08;;;;;;;6.10;3.57;;;10.40;72.50;;;;;;5010126;28;20315;-70
2021/04/25 01:15:34;;;;;;;6.07;3.10;;;10.40;72.30;;;;;;4990423;28;20536;-70
2021/04/25 01:18:00;;;;;;;4.07;2.93;;;10.50;72.40;;;;;;4995782;28;20558;-70
2021/04/25 01:20:26;;;;;;;3.50;3.17;;;10.50;72.40;;;;;;5008121;28;20628;-68
2021/04/25 01:22:52;;;;;;;4.33;3.10;;;10.40;72.10;;;;;;5014279;28;20232;-70
2021/04/25 01:25:22;;;;;;;4.97;3.27;;;10.40;72.20;;;;;;5005248;28;20216;-69
2021/04/25 01:27:48;;;;;;;4.40;3.60;;;10.40;72.50;;;;;;5010779;28;20258;-70
2021/04/25 01:30:16;;;;;;;4.57;2.90;;;10.40;72.20;;;;;;4986376;28;20486;-70
2021/04/25 01:32:42;;;;;;;4.90;3.00;;;10.40;72.00;;;;;;5015309;28;20488;-70
2021/04/25 01:35:21;;;;;;;9.30;3.70;;;10.30;72.30;;;;;;4998597;28;20467;-70
2021/04/25 01:37:48;;;;;;;4.27;2.90;;;10.30;72.60;;;;;;4998218;28;20543;-70
2021/04/25 01:40:14;;;;;;;4.77;2.70;;;10.30;72.50;;;;;;5002731;28;20537;-69
2021/04/25 01:42:40;;;;;;;5.63;3.70;;;10.10;72.30;;;;;;5014122;28;20463;-69
2021/04/25 01:45:06;;;;;;;5.30;3.10;;;10.00;72.20;;;;;;4998114;28;20459;-70
2021/04/25 01:47:32;;;;;;;5.60;3.00;;;10.00;72.70;;;;;;4996664;28;20220;-70
2021/04/25 01:49:58;;;;;;;4.60;2.90;;;10.00;72.60;;;;;;5004669;28;20594;-70
2021/04/25 01:52:24;;;;;;;3.40;2.43;;;9.90;74.00;;;;;;5013751;28;20224;-69
2021/04/25 01:54:50;;;;;;;3.30;3.00;;;9.90;74.40;;;;;;4997836;28;20447;-70
2021/04/25 01:57:15;;;;;;;3.73;2.87;;;9.80;74.10;;;;;;5016756;28;20217;-70
2021/04/25 01:59:41;;;;;;;6.43;3.70;;;9.80;74.20;;;;;;4963444;28;20759;-70
2021/04/25 02:02:07;;;;;;;5.00;3.60;;;9.80;74.30;;;;;;5001161;28;20221;-70
2021/04/25 02:04:33;;;;;;;4.70;3.30;;;9.80;74.20;;;;;;4978919;28;20307;-69
2021/04/25 02:06:58;;;;;;;3.33;2.60;;;9.60;74.30;;;;;;4997366;28;20232;-70
2021/04/25 02:09:24;;;;;;;3.50;3.10;;;9.60;74.40;;;;;;4979996;28;20268;-70
2021/04/25 02:11:49;;;;;;;4.20;3.23;;;9.40;74.40;;;;;;5021658;28;20712;-70
2021/04/25 02:14:15;;;;;;;3.53;2.93;;;9.30;74.60;;;;;;4997033;28;20732;-69
2021/04/25 02:16:41;;;;;;;6.60;3.63;;;9.20;75.10;;;;;;4997276;28;20224;-70
2021/04/25 02:19:07;;;;;;;3.67;2.23;;;9.20;75.20;;;;;;4980462;28;20878;-70
2021/04/25 02:21:32;;;;;;;8.83;3.60;;;9.10;75.30;;;;;;4985559;28;20403;-71
2021/04/25 02:23:58;;;;;;;2.80;2.60;;;9.10;75.60;;;;;;4997465;28;20293;-69
2021/04/25 02:26:25;;;;;;;2.23;2.07;;;9.00;75.70;;;;;;4977232;28;20217;-70
2021/04/25 02:28:51;;;;;;;5.43;4.20;;;9.00;75.70;;;;;;5004389;28;20231;-70
2021/04/25 02:31:17;;;;;;;4.50;3.43;;;9.10;75.60;;;;;;4996882;28;20486;-70
2021/04/25 02:33:42;;;;;;;5.20;2.87;;;9.00;75.70;;;;;;5003618;28;20216;-69
2021/04/25 02:36:08;;;;;;;5.47;3.53;;;9.00;75.90;;;;;;4997035;28;20470;-69
2021/04/25 02:38:34;;;;;;;5.90;3.37;;;9.00;76.10;;;;;;5012950;28;20270;-70
2021/04/25 02:41:01;;;;;;;3.70;2.97;;;9.00;76.20;;;;;;4980686;28;20447;-70
2021/04/25 02:43:27;;;;;;;5.23;3.37;;;8.90;75.80;;;;;;4967569;28;20554;-70
2021/04/25 02:45:52;;;;;;;4.93;3.30;;;8.80;76.10;;;;;;4993307;28;20528;-70
2021/04/25 02:48:18;;;;;;;4.17;3.30;;;8.80;76.20;;;;;;4993116;28;21039;-69
2021/04/25 02:50:44;;;;;;;4.07;2.60;;;8.70;76.70;;;;;;4993430;28;20814;-70
2021/04/25 02:53:11;;;;;;;5.07;3.77;;;8.70;76.50;;;;;;4986361;28;20216;-70
2021/04/25 02:55:39;;;;;;;4.70;2.53;;;8.50;76.60;;;;;;4998590;28;21019;-70
2021/04/25 02:58:05;;;;;;;3.20;2.63;;;8.50;76.90;;;;;;5013129;28;20977;-70
2021/04/25 03:00:31;;;;;;;6.57;2.57;;;8.50;77.00;;;;;;4995977;28;20478;-70
2021/04/25 03:02:57;;;;;;;1.83;1.70;;;8.40;77.00;;;;;;4980509;28;20456;-70
2021/04/25 03:05:25;;;;;;;3.67;2.27;;;8.40;77.20;;;;;;5012230;28;20605;-70
2021/04/25 03:07:51;;;;;;;5.10;3.13;;;8.40;77.50;;;;;;4996252;28;20451;-69
2021/04/25 03:10:18;;;;;;;4.30;3.10;;;8.30;77.30;;;;;;5012590;28;20574;-69
2021/04/25 03:12:45;;;;;;;6.57;2.93;;;8.30;77.60;;;;;;4995952;28;20462;-68
2021/04/25 03:15:12;;;;;;;8.50;3.30;;;8.30;77.70;;;;;;4996576;28;21042;-70
2021/04/25 03:17:38;;;;;;;2.80;2.20;;;8.30;77.70;;;;;;5004302;28;20452;-69
2021/04/25 03:20:06;;;;;;;3.10;1.57;;;8.20;77.80;;;;;;5012927;28;20467;-68
2021/04/25 03:22:32;;;;;;;4.53;3.40;;;8.10;78.00;;;;;;4962380;28;20471;-68
2021/04/25 03:24:58;;;;;;;8.80;3.53;;;8.10;77.90;;;;;;5009212;28;20448;-68
2021/04/25 03:27:24;;;;;;;6.03;3.50;;;8.10;78.00;;;;;;4977809;28;20901;-68
2021/04/25 03:29:50;;;;;;;3.73;2.80;;;8.10;78.10;;;;;;5014585;28;20295;-71
2021/04/25 03:32:16;;;;;;;3.87;2.77;;;8.10;78.00;;;;;;4989566;28;20868;-70
2021/04/25 03:34:41;;;;;;;3.93;1.97;;;8.00;77.90;;;;;;5030322;28;20220;-70
2021/04/25 03:37:07;;;;;;;4.43;3.00;;;8.00;78.10;;;;;;4980124;28;20826;-71
2021/04/25 03:39:33;;;;;;;6.27;3.40;;;8.00;78.20;;;;;;4979233;28;20239;-71
2021/04/25 03:41:59;;;;;;;4.50;3.37;;;7.90;78.20;;;;;;4988032;28;20751;-70
2021/04/25 03:44:25;;;;;;;4.60;2.97;;;7.90;78.20;;;;;;4992215;28;20476;-70
2021/04/25 03:46:50;;;;;;;6.93;2.60;;;7.80;78.20;;;;;;4992951;28;20232;-71
2021/04/25 03:49:20;;;;;;;4.87;2.67;;;7.90;78.30;;;;;;4975521;28;20278;-71
2021/04/25 03:51:48;;;;;;;4.73;2.50;;;7.80;78.20;;;;;;4999101;28;20221;-69
2021/04/25 03:54:14;;;;;;;4.10;1.93;;;7.80;78.20;;;;;;4983235;28;20453;-70
2021/04/25 03:56:40;;;;;;;4.63;3.00;;;7.70;78.30;;;;;;5011766;28;20550;-70
2021/04/25 03:59:05;;;;;;;3.90;2.40;;;7.70;78.30;;;;;;4976690;28;20244;-70
2021/04/25 04:01:31;;;;;;;2.50;1.90;;;7.70;78.20;;;;;;4985249;28;20456;-70
2021/04/25 04:03:57;;;;;;;7.83;3.00;;;7.70;78.60;;;;;;4975997;28;20255;-71
2021/04/25 04:06:23;;;;;;;5.53;2.83;;;7.70;78.30;;;;;;5005730;28;20307;-70
2021/04/25 04:08:48;;;;;;;4.13;3.17;;;7.80;78.40;;;;;;4995266;28;20217;-69
2021/04/25 04:11:14;;;;;;;4.50;3.03;;;7.80;78.10;;;;;;4995505;28;20212;-70
2021/04/25 04:13:39;;;;;;;7.33;2.93;;;7.90;78.00;;;;;;4994307;28;20225;-70
2021/04/25 04:16:05;;;;;;;5.30;2.70;;;7.80;77.40;;;;;;4960372;28;20245;-70
2021/04/25 04:18:31;;;;;;;4.00;2.37;;;7.80;77.30;;;;;;4959493;28;20232;-70
2021/04/25 04:20:57;;;;;;;4.60;3.00;;;7.70;77.30;;;;;;4986110;28;20217;-71
2021/04/25 04:23:23;;;;;;;4.53;2.47;;;7.70;77.40;;;;;;4995589;28;20240;-72
2021/04/25 04:25:49;;;;;;;5.50;2.53;;;7.80;77.10;;;;;;4993487;28;20220;-70
2021/04/25 04:28:15;;;;;;;2.60;1.97;;;7.80;77.80;;;;;;4987539;28;20457;-70
2021/04/25 04:30:40;;;;;;;4.27;3.70;;;7.80;76.80;;;;;;4995212;28;21031;-70
2021/04/25 04:33:06;;;;;;;7.60;2.80;;;7.70;76.60;;;;;;5000478;28;20486;-70
2021/04/25 04:35:32;;;;;;;5.07;2.67;;;7.70;76.60;;;;;;5013433;28;20316;-70
2021/04/25 04:37:58;;;;;;;4.57;2.83;;;7.70;76.60;;;;;;5007348;28;20228;-70
2021/04/25 04:40:23;;;;;;;4.40;2.17;;;7.60;76.40;;;;;;4980877;28;20229;-71
2021/04/25 04:42:49;;;;;;;2.50;2.07;;;7.70;76.70;;;;;;5015410;28;20246;-70
2021/04/25 04:45:16;;;;;;;3.57;2.20;;;7.70;76.80;;;;;;4998159;28;20220;-70
2021/04/25 04:47:43;;;;;;;5.73;2.23;;;7.70;76.50;;;;;;4982616;28;20232;-71
2021/04/25 04:50:09;;;;;;;2.93;2.30;;;7.70;76.50;;;;;;4963474;28;20534;-70
2021/04/25 04:52:35;;;;;;;2.80;2.57;;;7.70;76.50;;;;;;4990807;28;20459;-70
2021/04/25 04:55:01;;;;;;;3.03;2.27;;;7.70;76.50;;;;;;5004888;28;20875;-70
2021/04/25 04:57:27;;;;;;;2.83;2.10;;;7.70;76.30;;;;;;5007991;28;20241;-70
2021/04/25 04:59:52;;;;;;;3.20;1.90;;;7.70;76.60;;;;;;4979330;28;20467;-69
2021/04/25 05:02:18;;;;;;;5.73;2.50;;;7.70;76.30;;;;;;4978701;28;20236;-71
2021/04/25 05:04:44;;;;;;;2.87;2.40;;;7.70;76.20;;;;;;4986500;28;20297;-70
2021/04/25 05:07:09;;;;;;;3.20;2.40;;;7.70;77.40;;;;;;4982396;28;20245;-70
2021/04/25 05:09:35;;;;;;;2.10;1.93;;;7.80;76.90;;;;;;4988466;28;20228;-70
2021/04/25 05:12:01;;;;;;;5.00;3.50;;;7.80;76.80;;;;;;4994569;28;20227;-71
2021/04/25 05:14:26;;;;;;;2.97;2.20;;;7.80;76.20;;;;;;5014583;28;20613;-71
2021/04/25 05:16:52;;;;;;;3.00;2.30;;;7.80;76.50;;;;;;5014917;28;20682;-69
2021/04/25 05:19:18;;;;;;;4.20;2.40;;;7.90;76.70;;;;;;5044089;28;20731;-68
2021/04/25 05:21:44;;;;;;;4.03;2.37;;;8.00;77.60;;;;;;4997292;28;20224;-68
2021/04/25 05:24:10;;;;;;;3.03;2.30;;;8.00;76.30;;;;;;4998272;28;20228;-68
2021/04/25 05:26:36;;;;;;;1.83;1.70;;;8.00;76.60;;;;;;5014237;28;20219;-69
2021/04/25 05:29:02;;;;;;;3.33;2.57;;;8.10;76.90;;;;;;4998179;28;20830;-69
2021/04/25 05:31:28;;;;;;;3.47;2.57;;;8.10;76.60;;;;;;5013332;28;20471;-68
2021/04/25 05:33:54;;;;;;;2.23;2.00;;;8.10;76.60;;;;;;4994991;28;20940;-68
2021/04/25 05:36:19;;;;;;;3.50;2.03;;;8.20;77.20;;;;;;4961845;28;20313;-68
2021/04/25 05:38:45;;;;;;;3.13;2.20;;;8.20;76.80;;;;;;4982484;28;20233;-68
2021/04/25 05:41:11;;;;;;;2.53;2.03;;;8.20;77.00;;;;;;4991101;28;20220;-68
2021/04/25 05:43:36;;;;;;;6.23;2.07;;;8.20;77.00;;;;;;4981512;28;20232;-68
2021/04/25 05:46:02;;;;;;;5.13;1.97;;;8.30;77.10;;;;;;4998072;28;20708;-68
2021/04/25 05:48:28;;;;;;;2.53;1.60;;;8.30;77.10;;;;;;4997702;28;20240;-68
2021/04/25 05:50:53;;;;;;;2.90;2.30;;;8.30;77.30;;;;;;5003655;28;20697;-69
2021/04/25 05:53:19;;;;;;;1.60;1.50;;;8.40;77.50;;;;;;5031809;28;20224;-68
2021/04/25 05:55:45;;;;;;;2.60;2.40;;;8.40;77.40;;;;;;5030585;28;20231;-68
2021/04/25 05:58:11;;;;;;;2.60;2.00;;;8.50;77.40;;;;;;5004835;28;20228;-68
2021/04/25 06:00:39;;;;;;;2.57;1.63;;;8.50;77.40;;;;;;5006816;28;20250;-68
2021/04/25 06:03:06;;;;;;;3.43;1.83;;;8.50;77.40;;;;;;5006431;28;20315;-69
2021/04/25 06:05:32;;;;;;;5.10;3.30;;;8.50;77.40;;;;;;5013440;28;20768;-68
2021/04/25 06:07:57;;;;;;;3.20;1.73;;;8.60;77.40;;;;;;4997081;28;20542;-68
2021/04/25 06:10:24;;;;;;;1.70;1.43;;;8.60;77.00;;;;;;5007223;28;20464;-69
2021/04/25 06:12:51;;;;;;;1.70;1.60;;;8.60;77.60;;;;;;4997772;28;20228;-69
2021/04/25 06:15:18;;;;;;;3.30;2.30;;;8.60;77.50;;;;;;5023647;28;21114;-68
2021/04/25 06:17:51;;;;;;;2.33;2.10;;;8.70;77.70;;;;;;5003939;28;20447;-68
2021/04/25 06:20:18;;;;;;;2.03;1.53;;;8.70;77.40;;;;;;5012333;28;20458;-68
2021/04/25 06:22:44;;;;;;;2.17;1.97;;;8.80;77.20;;;;;;5002076;28;20472;-69
2021/04/25 06:25:11;;;;;;;2.40;1.90;;;8.80;77.50;;;;;;4993393;28;20455;-68
2021/04/25 06:28:01;;;;;;;2.63;2.10;;;8.80;77.50;;;;;;4980377;28;20463;-68
2021/04/25 06:30:28;;;;;;;3.60;1.47;;;8.90;77.90;;;;;;4987562;28;20471;-68
2021/04/25 06:32:54;;;;;;;2.17;1.87;;;8.90;77.70;;;;;;5013249;28;20479;-69
2021/04/25 06:35:20;;;;;;;1.70;1.40;;;8.90;78.50;;;;;;4988458;28;20460;-69
2021/04/25 06:37:47;;;;;;;3.27;2.60;;;9.00;78.20;;;;;;5011564;28;20236;-68
2021/04/25 06:40:14;;;;;;;2.50;1.73;;;9.10;78.90;;;;;;5029679;28;20224;-68
2021/04/25 06:42:40;;;;;;;3.20;2.20;;;9.10;78.00;;;;;;4996540;28;20985;-68
2021/04/25 06:45:14;;;;;;;2.07;1.87;;;9.10;78.30;;;;;;4992164;28;20459;-69
2021/04/25 06:47:41;;;;;;;3.57;1.80;;;9.20;78.60;;;;;;4961291;28;20447;-68
2021/04/25 06:50:11;;;;;;;2.23;1.90;;;9.20;78.80;;;;;;5010706;28;20488;-71
2021/04/25 06:52:38;;;;;;;1.90;1.60;;;9.30;78.60;;;;;;5000656;28;20458;-68
2021/04/25 06:55:05;;;;;;;4.17;1.80;;;9.40;78.50;;;;;;5000881;28;20552;-68
2021/04/25 06:57:30;;;;;;;2.50;2.30;;;9.40;78.00;;;;;;5010047;28;20467;-68
2021/04/25 06:59:56;;;;;;;3.20;2.13;;;9.50;78.70;;;;;;4993185;28;20460;-68
2021/04/25 07:02:22;;;;;;;2.33;1.97;;;9.50;78.20;;;;;;5002529;28;20251;-68
2021/04/25 07:04:48;;;;;;;3.53;2.00;;;9.60;78.80;;;;;;5004917;28;20232;-68
2021/04/25 07:07:13;;;;;;;1.90;1.60;;;9.70;78.10;;;;;;5009940;28;20215;-70
2021/04/25 07:09:40;;;;;;;5.90;2.00;;;9.70;77.50;;;;;;5004347;28;20224;-68
2021/04/25 07:12:06;;;;;;;2.87;2.40;;;9.80;78.60;;;;;;5010126;28;20703;-68
2021/04/25 07:14:32;;;;;;;2.60;2.40;;;9.90;79.40;;;;;;4990168;28;20950;-69
2021/04/25 07:16:57;;;;;;;3.13;2.10;;;10.00;77.70;;;;;;5014132;28;20464;-68
2021/04/25 07:19:23;;;;;;;2.63;1.70;;;10.20;78.00;;;;;;4987837;28;20626;-69
2021/04/25 07:21:49;;;;;;;3.83;2.00;;;10.20;77.20;;;;;;4995809;28;20308;-69
2021/04/25 07:24:14;;;;;;;1.70;1.60;;;10.30;75.70;;;;;;5037858;28;20223;-70
2021/04/25 07:26:40;;;;;;;1.83;1.63;;;10.30;77.00;;;;;;5004350;28;20287;-69
2021/04/25 07:29:06;;;;;;;1.50;1.17;;;10.40;76.90;;;;;;4979132;28;20227;-69
2021/04/25 07:31:32;;;;;;;2.83;2.00;;;10.40;76.70;;;;;;5003104;28;20299;-70
2021/04/25 07:33:58;;;;;;;1.63;1.53;;;10.60;76.40;;;;;;5008786;28;20247;-70
2021/04/25 07:36:26;;;;;;;2.03;1.90;;;10.60;76.20;;;;;;4966619;28;20212;-69
2021/04/25 07:38:52;;;;;;;2.10;1.70;;;10.70;75.80;;;;;;5019576;28;20474;-69
2021/04/25 07:41:17;;;;;;;1.77;1.60;;;10.70;76.20;;;;;;4995576;28;20448;-69
2021/04/25 07:43:43;;;;;;;3.40;2.20;;;10.80;76.30;;;;;;4992933;28;20710;-69
2021/04/25 07:46:09;;;;;;;2.17;1.97;;;10.90;76.20;;;;;;4995435;28;20228;-69
2021/04/25 07:48:35;;;;;;;2.53;1.60;;;11.00;76.40;;;;;;4992209;28;20459;-69
2021/04/25 07:51:01;;;;;;;4.20;2.33;;;11.10;75.90;;;;;;5012017;28;20220;-69
2021/04/25 07:53:28;;;;;;;1.93;1.70;;;11.20;74.60;;;;;;4989980;28;20217;-71
2021/04/25 07:55:53;;;;;;;4.70;2.00;;;11.20;74.80;;;;;;4996006;28;20232;-69
2021/04/25 07:58:19;;;;;;;4.50;2.47;;;11.20;74.90;;;;;;4996126;28;20830;-69
2021/04/25 08:00:46;;;;;;;2.60;2.37;;;11.30;75.40;;;;;;4996659;28;20244;-69
2021/04/25 08:03:11;;;;;;;4.17;1.87;;;11.40;74.30;;;;;;5015323;28;20238;-69
2021/04/25 08:05:37;;;;;;;4.83;1.40;;;11.50;74.40;;;;;;4982882;28;20467;-69
2021/04/25 08:08:03;;;;;;;2.07;1.20;;;11.60;74.40;;;;;;4979399;28;20233;-69
2021/04/25 08:10:29;;;;;;;1.90;1.80;;;11.80;74.30;;;;;;4995975;28;20311;-69
2021/04/25 08:12:55;;;;;;;2.67;1.60;;;11.80;73.40;;;;;;5003734;28;20547;-68
2021/04/25 08:15:23;;;;;;;1.97;1.87;;;11.80;73.30;;;;;;4979786;28;20249;-69
2021/04/25 08:17:49;;;;;;;2.20;1.93;;;11.70;73.90;;;;;;4980420;28;20259;-69
2021/04/25 08:20:35;;;;;;;3.30;2.33;;;11.80;74.30;;;;;;4982338;28;20493;-69
2021/04/25 08:23:02;;;;;;;6.13;2.00;;;11.90;74.20;;;;;;5017086;28;20475;-69
2021/04/25 08:25:28;;;;;;;1.60;1.40;;;12.10;73.80;;;;;;5013844;28;20466;-70
2021/04/25 08:27:57;;;;;;;1.67;1.43;;;12.20;73.90;;;;;;5004988;28;20498;-70
2021/04/25 08:30:31;;;;;;;2.50;2.10;;;12.30;73.60;;;;;;4997063;28;20209;-69
2021/04/25 08:32:57;;;;;;;2.87;1.77;;;12.30;71.70;;;;;;5010932;28;20454;-69
2021/04/25 08:35:23;;;;;;;2.40;1.90;;;12.30;72.40;;;;;;5012464;28;20487;-69
2021/04/25 08:37:49;;;;;;;2.03;1.73;;;12.20;72.10;;;;;;5032269;28;20224;-70
2021/04/25 08:40:15;;;;;;;3.07;2.10;;;12.20;71.60;;;;;;4997919;28;20505;-69
2021/04/25 08:42:42;;;;;;;2.40;2.20;;;12.30;72.00;;;;;;4998476;28;20255;-69
2021/04/25 08:45:08;;;;;;;3.27;2.27;;;12.40;72.10;;;;;;4999232;28;20227;-68
2021/04/25 08:47:46;;;;;;;2.30;1.90;;;12.40;72.00;;;;;;5013900;28;20439;-69
2021/04/25 08:50:13;;;;;;;2.03;1.73;;;12.50;71.90;;;;;;5014653;28;20455;-70
2021/04/25 08:52:39;;;;;;;4.10;2.00;;;12.60;72.20;;;;;;4982060;28;20495;-69
2021/04/25 08:55:05;;;;;;;3.20;1.60;;;12.80;72.40;;;;;;5031742;28;20462;-69
2021/04/25 08:57:31;;;;;;;2.03;1.83;;;12.90;72.60;;;;;;5031621;28;20455;-69
2021/04/25 08:59:57;;;;;;;2.40;2.00;;;13.00;72.60;;;;;;4982191;28;20462;-69
2021/04/25 09:02:22;;;;;;;5.50;3.07;;;13.20;72.80;;;;;;4997796;28;20224;-69
2021/04/25 09:04:48;;;;;;;2.77;2.10;;;13.20;70.90;;;;;;4998469;28;20320;-69
2021/04/25 09:07:16;;;;;;;3.50;2.30;;;13.20;71.30;;;;;;5002015;28;20246;-69
2021/04/25 09:09:49;;;;;;;3.00;2.50;;;13.30;71.20;;;;;;4985240;28;20217;-69
2021/04/25 09:12:39;;;;;;;4.57;2.50;;;13.40;70.60;;;;;;5012278;28;20451;-71
2021/04/25 09:15:11;;;;;;;3.43;2.47;;;13.40;69.20;;;;;;4999255;28;20469;-69
2021/04/25 09:17:52;;;;;;;4.60;2.37;;;13.40;69.40;;;;;;5005619;28;20444;-69
2021/04/25 09:20:19;;;;;;;5.73;2.47;;;13.50;69.50;;;;;;4997966;28;20455;-69
2021/04/25 09:22:49;;;;;;;2.20;2.00;;;13.60;69.40;;;;;;4998696;28;20467;-69
2021/04/25 09:25:18;;;;;;;4.57;2.67;;;13.60;69.70;;;;;;5012915;28;21038;-69
2021/04/25 09:27:46;;;;;;;3.77;2.67;;;13.70;68.60;;;;;;5022391;28;20534;-68
2021/04/25 09:30:18;;;;;;;3.63;2.30;;;13.60;67.60;;;;;;5013926;28;20455;-70
2021/04/25 09:32:44;;;;;;;4.13;2.07;;;13.60;68.30;;;;;;4983377;28;20965;-69
2021/04/25 09:35:17;;;;;;;2.80;1.93;;;13.60;68.00;;;;;;5009201;28;20455;-69
2021/04/25 09:37:45;;;;;;;5.70;2.30;;;13.80;68.50;;;;;;5032604;28;20216;-69
2021/04/25 09:40:17;;;;;;;2.53;2.30;;;13.80;68.80;;;;;;5013605;28;20982;-69
2021/04/25 09:42:58;;;;;;;3.43;2.10;;;13.90;68.10;;;;;;4987897;28;20855;-70
2021/04/25 09:45:30;;;;;;;3.20;2.20;;;13.90;67.20;;;;;;5008676;28;20471;-70
2021/04/25 09:47:56;;;;;;;2.70;1.90;;;14.00;67.80;;;;;;5023726;28;20463;-69
2021/04/25 09:50:23;;;;;;;2.47;2.27;;;14.00;66.60;;;;;;4986563;28;20496;-69
2021/04/25 09:52:50;;;;;;;2.43;2.10;;;14.00;67.00;;;;;;5023332;28;20463;-69
2021/04/25 09:55:32;;;;;;;2.23;2.00;;;14.00;65.90;;;;;;4982396;28;20464;-69
2021/04/25 09:58:05;;;;;;;2.70;1.90;;;13.90;66.00;;;;;;4985226;28;21073;-69
2021/04/25 10:00:39;;;;;;;4.60;2.30;;;13.90;66.70;;;;;;5009030;28;20467;-71
2021/04/25 10:03:09;;;;;;;2.27;2.00;;;13.80;66.80;;;;;;4962303;28;20464;-70
2021/04/25 10:05:36;;;;;;;1.90;1.80;;;14.00;68.40;;;;;;5009483;28;20449;-69
2021/04/25 10:08:27;;;;;;;2.63;2.37;;;14.10;67.40;;;;;;5005435;28;20478;-69
2021/04/25 10:11:04;;;;;;;3.27;2.10;;;14.20;66.80;;;;;;5002330;28;20550;-69
2021/04/25 10:13:32;;;;;;;2.00;1.90;;;14.40;67.50;;;;;;4998054;28;20483;-70
2021/04/25 10:15:57;;;;;;;2.70;2.50;;;14.40;67.20;;;;;;5008259;28;20490;-70
2021/04/25 10:18:24;;;;;;;2.83;1.80;;;14.40;66.80;;;;;;5001645;28;20459;-71
2021/04/25 10:20:51;;;;;;;2.53;2.27;;;14.50;66.50;;;;;;5032831;28;20450;-69
2021/04/25 10:23:17;;;;;;;4.17;2.97;;;14.50;65.80;;;;;;4995129;28;20545;-69
2021/04/25 10:25:44;;;;;;;2.40;2.00;;;14.30;65.80;;;;;;5009272;28;20467;-70
2021/04/25 10:28:24;;;;;;;2.20;1.83;;;14.30;66.20;;;;;;5003431;28;20463;-70
2021/04/25 10:30:50;;;;;;;3.70;2.80;;;14.30;65.40;;;;;;5015951;28;20460;-70
2021/04/25 10:33:16;;;;;;;4.30;2.40;;;14.40;65.90;;;;;;5006637;28;20560;-70
2021/04/25 10:35:56;;;;;;;2.30;1.80;;;14.50;67.80;;;;;;4997055;28;21195;-70
2021/04/25 10:38:38;;;;;;;2.57;2.07;;;14.80;68.20;;;;;;5002669;28;20225;-70
2021/04/25 10:41:18;;;;;;;3.97;3.00;;;15.10;68.30;;;;;;5017207;28;20447;-69
2021/04/25 10:43:58;;;;;;;3.33;2.60;;;14.90;65.30;;;;;;5041632;28;20463;-69
2021/04/25 10:46:24;;;;;;;2.97;1.93;;;15.10;67.50;;;;;;5031888;28;20487;-70
2021/04/25 10:48:50;;;;;;;2.20;2.07;;;15.50;65.80;;;;;;4991659;28;20468;-69
2021/04/25 10:51:18;;;;;;;7.60;2.80;;;15.90;65.20;;;;;;4984117;28;20216;-70
2021/04/25 10:53:46;;;;;;;2.83;1.83;;;15.80;64.50;;;;;;5024215;28;20459;-69
2021/04/25 10:56:12;;;;;;;2.47;2.20;;;15.70;65.60;;;;;;5002949;28;20798;-70
2021/04/25 10:58:46;;;;;;;4.30;2.20;;;15.90;65.80;;;;;;4993966;28;20447;-70
2021/04/25 11:01:40;;;;;;;4.03;2.80;;;16.00;66.00;;;;;;4988403;28;20448;-69
2021/04/25 11:04:09;;;;;;;4.73;2.73;;;16.10;65.60;;;;;;5000142;28;20444;-71
2021/04/25 11:06:34;;;;;;;1.90;1.80;;;16.10;65.00;;;;;;5020052;28;20456;-70
2021/04/25 11:09:01;;;;;;;2.20;1.87;;;16.20;66.30;;;;;;4989928;28;20513;-69
2021/04/25 11:11:39;;;;;;;3.37;2.37;;;16.30;66.70;;;;;;5000221;28;20215;-69
2021/04/25 11:14:06;;;;;;;2.90;2.70;;;16.50;66.30;;;;;;5005902;28;20514;-70
2021/04/25 11:16:33;;;;;;;2.83;2.53;;;16.50;64.60;;;;;;5002500;28;20451;-69
2021/04/25 11:19:10;;;;;;;6.13;2.90;;;16.30;64.20;;;;;;4999807;28;20517;-70
2021/04/25 11:21:40;;;;;;;2.90;2.30;;;16.20;64.40;;;;;;4995813;28;20439;-69
2021/04/25 11:24:09;;;;;;;4.13;2.10;;;16.20;63.30;;;;;;5012347;28;20455;-67
2021/04/25 11:26:35;;;;;;;2.80;2.40;;;16.30;64.10;;;;;;5008738;28;20530;-69
2021/04/25 11:29:23;;;;;;;2.07;1.87;;;16.60;64.10;;;;;;5011923;28;20447;-69
2021/04/25 11:31:57;;;;;;;4.20;2.50;;;16.70;64.10;;;;;;4987163;28;20543;-69
2021/04/25 11:34:22;;;;;;;2.13;1.73;;;16.50;61.90;;;;;;4991359;28;20455;-69
2021/04/25 11:36:51;;;;;;;2.40;2.20;;;16.50;60.70;;;;;;4999092;28;20510;-69
2021/04/25 11:39:19;;;;;;;3.43;2.23;;;16.20;60.20;;;;;;5012568;28;20217;-70
2021/04/25 11:41:47;;;;;;;2.73;2.30;;;16.10;59.70;;;;;;4985092;28;20546;-69
2021/04/25 11:44:22;;;;;;;4.37;2.80;;;16.00;61.00;;;;;;4991777;28;20503;-69
2021/04/25 11:46:48;;;;;;;4.80;2.20;;;16.00;59.90;;;;;;4995846;28;20450;-70
2021/04/25 11:49:14;;;;;;;3.97;1.97;;;16.10;61.10;;;;;;4994813;28;20551;-68
2021/04/25 11:51:39;;;;;;;2.40;2.20;;;16.30;60.50;;;;;;5005390;28;20225;-69
2021/04/25 11:54:19;;;;;;;2.80;2.17;;;16.20;61.20;;;;;;4992831;28;20684;-69
2021/04/25 11:56:45;;;;;;;2.00;1.90;;;16.40;60.60;;;;;;4995893;28;20282;-70
2021/04/25 11:59:15;;;;;;;2.70;2.37;;;16.40;61.00;;;;;;5011055;28;20451;-68
2021/04/25 12:01:41;;;;;;;2.37;1.80;;;16.60;60.50;;;;;;5014927;28;20228;-69
2021/04/25 12:04:07;;;;;;;4.43;2.60;;;16.70;61.30;;;;;;5029078;28;20577;-70
2021/04/25 12:06:45;;;;;;;2.30;1.87;;;16.70;60.00;;;;;;4997901;28;20234;-68
2021/04/25 12:09:11;;;;;;;4.97;2.83;;;16.70;60.30;;;;;;5009301;28;20270;-68
2021/04/25 12:11:37;;;;;;;3.50;1.97;;;16.70;61.20;;;;;;4985575;28;20455;-68
2021/04/25 12:14:18;;;;;;;1.83;1.67;;;16.80;59.80;;;;;;4972006;28;20212;-68
2021/04/25 12:16:44;;;;;;;2.63;2.00;;;16.70;60.60;;;;;;5007147;28;20216;-69
2021/04/25 12:19:20;;;;;;;10.73;3.10;;;16.70;61.60;;;;;;5009123;28;20526;-69
2021/04/25 12:21:46;;;;;;;3.33;2.03;;;16.70;60.80;;;;;;5011365;28;20226;-69
2021/04/25 12:24:12;;;;;;;3.33;2.00;;;16.60;60.00;;;;;;4991129;28;20455;-71
2021/04/25 12:26:42;;;;;;;3.10;2.30;;;16.60;59.90;;;;;;4995488;28;20246;-69
2021/04/25 12:29:08;;;;;;;2.50;2.13;;;16.50;59.60;;;;;;5007583;28;20209;-69
2021/04/25 12:31:43;;;;;;;2.70;2.23;;;16.80;60.40;;;;;;4994578;28;21012;-70
2021/04/25 12:34:13;;;;;;;3.53;1.97;;;17.00;59.90;;;;;;4991934;28;20217;-69
2021/04/25 12:36:48;;;;;;;2.43;2.00;;;17.10;60.30;;;;;;5004519;28;20986;-69
2021/04/25 12:39:13;;;;;;;3.80;2.60;;;17.10;60.50;;;;;;5004809;28;20502;-68
2021/04/25 12:41:45;;;;;;;3.67;2.30;;;17.00;59.80;;;;;;5003802;28;20467;-69
2021/04/25 12:44:12;;;;;;;3.53;2.37;;;17.00;60.00;;;;;;4993113;28;20224;-69
2021/04/25 12:46:38;;;;;;;2.60;1.90;;;16.80;59.40;;;;;;5024588;28;20580;-69
2021/04/25 12:49:05;;;;;;;2.63;2.27;;;16.50;58.80;;;;;;4991759;28;20543;-68
2021/04/25 12:51:43;;;;;;;2.23;1.90;;;16.30;58.90;;;;;;4998912;28;20269;-69